Time;durP1;ratioP1;P1;durP2;ratioP2;P2;SDS_P1;SDS_P2;PMS_P1;PMS_P2;Temp;Humidity;BMP_temperature;BMP_pressure;BME280_temperature;BME280_humidity;BME280_pressure;Samples;Min_cycle;Max_cycle;Signal;HPM_P1;HPM_P2
2021/03/18 00:02:04;;;;;;;11.13;5.60;;;2.30;99.90;;;;;;5097858;28;20241;-67
2021/03/18 00:04:30;;;;;;;15.40;6.00;;;2.30;99.90;;;;;;5114631;28;20235;-65
2021/03/18 00:06:57;;;;;;;14.30;5.17;;;2.30;99.90;;;;;;5113228;28;20460;-67
2021/03/18 00:09:25;;;;;;;15.43;5.35;;;2.30;99.90;;;;;;5114632;28;20461;-66
2021/03/18 00:11:52;;;;;;;13.50;5.80;;;2.20;99.90;;;;;;5113020;28;20199;-66
2021/03/18 00:14:22;;;;;;;11.73;5.40;;;2.20;99.90;;;;;;5114338;28;20514;-66
2021/03/18 00:16:48;;;;;;;14.32;5.22;;;2.10;99.90;;;;;;5113999;28;20290;-67
2021/03/18 00:19:16;;;;;;;14.05;5.95;;;2.10;99.90;;;;;;5108421;28;20196;-66
2021/03/18 00:21:42;;;;;;;13.30;5.13;;;2.10;99.90;;;;;;5103557;28;20699;-68
2021/03/18 00:24:10;;;;;;;19.58;7.28;;;2.00;99.90;;;;;;5110255;28;20637;-66
2021/03/18 00:26:37;;;;;;;11.10;4.43;;;2.00;99.90;;;;;;5093300;28;20723;-67
2021/03/18 00:29:05;;;;;;;12.10;4.80;;;2.00;99.90;;;;;;5104980;28;20203;-67
2021/03/18 00:31:35;;;;;;;15.23;5.65;;;2.00;99.90;;;;;;5106179;28;20199;-65
2021/03/18 00:34:02;;;;;;;10.67;4.90;;;2.00;99.90;;;;;;5094448;28;20673;-68
2021/03/18 00:36:29;;;;;;;12.35;5.38;;;1.90;99.90;;;;;;5098917;28;20448;-64
2021/03/18 00:38:56;;;;;;;13.50;5.18;;;1.90;99.90;;;;;;5113324;28;20280;-65
2021/03/18 00:41:23;;;;;;;13.20;5.22;;;1.80;99.90;;;;;;5105083;28;20571;-67
2021/03/18 00:43:50;;;;;;;12.70;4.77;;;1.80;99.90;;;;;;5094399;28;20267;-67
2021/03/18 00:46:16;;;;;;;12.80;5.43;;;1.80;99.90;;;;;;5107853;28;20965;-68
2021/03/18 00:48:43;;;;;;;16.10;4.90;;;1.70;99.90;;;;;;5103409;28;20255;-65
2021/03/18 00:51:14;;;;;;;10.60;4.82;;;1.80;99.90;;;;;;5112471;28;20601;-66
2021/03/18 00:53:43;;;;;;;9.30;4.40;;;1.70;99.90;;;;;;5104750;28;20550;-66
2021/03/18 00:56:12;;;;;;;8.65;3.83;;;1.70;99.90;;;;;;5099431;28;20199;-67
2021/03/18 00:58:39;;;;;;;10.90;4.22;;;1.70;99.90;;;;;;5112350;27;20211;-67
2021/03/18 01:01:08;;;;;;;12.02;4.60;;;1.70;99.90;;;;;;5101064;28;20199;-67
2021/03/18 01:03:37;;;;;;;13.60;4.82;;;1.70;99.90;;;;;;5101876;28;20200;-67
2021/03/18 01:06:07;;;;;;;11.83;4.37;;;1.70;99.90;;;;;;5112408;28;20627;-65
2021/03/18 01:08:35;;;;;;;9.13;4.75;;;1.70;99.90;;;;;;5105576;28;20456;-68
2021/03/18 01:11:05;;;;;;;10.15;5.03;;;1.70;99.90;;;;;;5092433;28;20687;-65
2021/03/18 01:13:32;;;;;;;12.52;3.90;;;1.70;99.90;;;;;;5096513;28;20206;-65
2021/03/18 01:16:03;;;;;;;14.70;4.63;;;1.80;99.90;;;;;;5112362;28;20199;-65
2021/03/18 01:18:36;;;;;;;12.90;4.70;;;1.70;99.90;;;;;;5093060;28;20198;-65
2021/03/18 01:21:02;;;;;;;11.43;4.68;;;1.80;99.90;;;;;;5101498;28;20191;-65
2021/03/18 01:23:28;;;;;;;11.70;4.10;;;1.80;99.90;;;;;;5101972;27;20200;-66
2021/03/18 01:25:55;;;;;;;10.88;4.10;;;1.80;99.90;;;;;;5092019;28;20191;-65
2021/03/18 01:28:21;;;;;;;10.32;4.95;;;1.80;99.90;;;;;;5100785;28;20660;-65
2021/03/18 01:30:47;;;;;;;9.00;4.32;;;1.80;99.90;;;;;;5095981;28;20195;-66
2021/03/18 01:33:14;;;;;;;12.82;4.47;;;1.80;99.90;;;;;;5107386;28;20556;-68
2021/03/18 01:35:41;;;;;;;8.63;4.47;;;1.90;99.90;;;;;;5112342;28;20198;-65
2021/03/18 01:38:07;;;;;;;9.95;4.10;;;1.90;99.90;;;;;;5111748;28;20660;-68
2021/03/18 01:40:34;;;;;;;11.98;4.07;;;1.90;99.90;;;;;;5104016;28;20203;-65
2021/03/18 01:43:00;;;;;;;9.38;4.40;;;1.90;99.90;;;;;;5108841;28;20263;-66
2021/03/18 01:45:27;;;;;;;12.38;4.60;;;1.90;99.90;;;;;;5105437;28;20227;-67
2021/03/18 01:47:56;;;;;;;11.52;4.13;;;1.90;99.90;;;;;;5101276;28;20286;-67
2021/03/18 01:50:25;;;;;;;8.25;4.63;;;1.90;99.90;;;;;;5111462;28;20230;-65
2021/03/18 01:52:52;;;;;;;13.32;4.80;;;1.90;99.90;;;;;;5101431;28;20193;-65
2021/03/18 01:55:23;;;;;;;10.25;3.85;;;1.90;99.90;;;;;;5111349;28;20208;-65
2021/03/18 01:57:49;;;;;;;9.70;4.22;;;2.00;99.90;;;;;;5106984;28;20206;-67
2021/03/18 02:00:16;;;;;;;11.38;4.78;;;2.00;99.90;;;;;;5112355;28;20339;-66
2021/03/18 02:02:43;;;;;;;12.10;5.28;;;2.00;99.90;;;;;;5103592;28;20191;-66
2021/03/18 02:05:10;;;;;;;15.10;5.00;;;2.00;99.90;;;;;;5111194;28;20223;-65
2021/03/18 02:07:37;;;;;;;10.50;4.60;;;2.00;99.90;;;;;;5106899;28;20187;-65
2021/03/18 02:10:05;;;;;;;11.13;4.53;;;2.00;99.90;;;;;;5112395;28;20199;-66
2021/03/18 02:12:31;;;;;;;9.98;5.20;;;2.10;99.90;;;;;;5094544;28;20196;-67
2021/03/18 02:14:57;;;;;;;12.85;5.07;;;2.00;99.90;;;;;;5091521;28;20203;-66
2021/03/18 02:17:28;;;;;;;12.10;5.65;;;2.00;99.90;;;;;;5106962;28;20201;-68
2021/03/18 02:20:36;;;;;;;10.73;5.65;;;2.00;99.90;;;;;;5112200;28;20202;-65
2021/03/18 02:23:44;;;;;;;11.57;4.93;;;2.00;99.90;;;;;;5098753;28;20209;-65
2021/03/18 02:26:29;;;;;;;11.15;5.25;;;1.90;99.90;;;;;;5105758;28;20207;-66
2021/03/18 02:29:13;;;;;;;11.63;5.75;;;1.90;99.90;;;;;;5112139;28;20204;-67
2021/03/18 02:31:54;;;;;;;15.00;5.30;;;1.80;99.90;;;;;;5095092;28;20263;-66
2021/03/18 02:34:40;;;;;;;12.60;5.53;;;1.70;99.90;;;;;;5091765;28;20200;-67
2021/03/18 02:37:12;;;;;;;12.10;5.00;;;1.70;99.90;;;;;;5098293;28;20545;-68
2021/03/18 02:39:43;;;;;;;10.05;5.00;;;1.70;99.90;;;;;;5111365;28;20199;-66
2021/03/18 02:42:18;;;;;;;12.75;4.70;;;1.60;99.90;;;;;;5110056;28;20199;-65
2021/03/18 02:44:47;;;;;;;13.82;4.28;;;1.60;99.90;;;;;;5110048;28;20216;-65
2021/03/18 02:47:14;;;;;;;12.05;5.93;;;1.60;99.90;;;;;;5104753;28;20264;-66
2021/03/18 02:49:43;;;;;;;14.70;4.72;;;1.60;99.90;;;;;;5093606;28;20552;-67
2021/03/18 02:52:16;;;;;;;12.95;4.80;;;1.60;99.90;;;;;;5111785;28;20206;-65
2021/03/18 02:54:43;;;;;;;9.57;5.05;;;1.60;99.90;;;;;;5107989;28;20224;-65
2021/03/18 02:57:11;;;;;;;12.93;5.35;;;1.60;99.90;;;;;;5090941;28;20614;-67
2021/03/18 02:59:40;;;;;;;12.40;6.00;;;1.50;99.90;;;;;;5106983;28;20551;-65
2021/03/18 03:02:12;;;;;;;11.77;5.55;;;1.50;99.90;;;;;;5111897;28;20208;-66
2021/03/18 03:04:39;;;;;;;10.30;5.00;;;1.40;99.90;;;;;;5095506;28;20273;-68
2021/03/18 03:07:08;;;;;;;11.88;5.75;;;1.40;99.90;;;;;;5095561;28;20561;-64
2021/03/18 03:09:36;;;;;;;12.05;5.60;;;1.40;99.90;;;;;;5101332;28;20192;-65
2021/03/18 03:12:04;;;;;;;13.50;5.20;;;1.40;99.90;;;;;;5110571;28;20202;-67
2021/03/18 03:14:32;;;;;;;13.50;5.78;;;1.40;99.90;;;;;;5110380;28;20209;-66
2021/03/18 03:17:01;;;;;;;11.10;5.65;;;1.40;99.90;;;;;;5103754;28;20613;-67
2021/03/18 03:19:28;;;;;;;14.93;5.22;;;1.40;99.90;;;;;;5103183;28;20216;-65
2021/03/18 03:21:56;;;;;;;14.38;5.30;;;1.40;99.90;;;;;;5105739;28;20198;-67
2021/03/18 03:24:23;;;;;;;17.00;6.13;;;1.40;99.90;;;;;;5102928;28;20228;-66
2021/03/18 03:26:54;;;;;;;20.27;6.90;;;1.40;99.90;;;;;;5095467;28;20213;-68
2021/03/18 03:29:20;;;;;;;12.18;6.20;;;1.50;99.90;;;;;;5095280;28;20194;-67
2021/03/18 03:31:47;;;;;;;13.35;5.78;;;1.50;99.90;;;;;;5111087;28;20201;-67
2021/03/18 03:34:13;;;;;;;12.15;6.53;;;1.50;99.90;;;;;;5113567;28;20201;-67
2021/03/18 03:36:39;;;;;;;17.38;6.28;;;1.40;99.90;;;;;;5107757;28;20566;-68
2021/03/18 03:39:07;;;;;;;12.20;6.60;;;1.50;99.90;;;;;;5096471;28;20545;-65
2021/03/18 03:41:34;;;;;;;11.63;5.28;;;1.50;99.90;;;;;;5115053;28;20194;-67
2021/03/18 03:44:02;;;;;;;10.88;5.80;;;1.50;99.90;;;;;;5114460;28;20257;-67
2021/03/18 03:46:28;;;;;;;12.65;5.90;;;1.40;99.90;;;;;;5094551;28;20205;-66
2021/03/18 03:48:55;;;;;;;9.98;5.78;;;1.40;99.90;;;;;;5099934;28;20718;-67
2021/03/18 03:51:21;;;;;;;11.50;5.40;;;1.40;99.90;;;;;;5094577;28;20207;-67
2021/03/18 03:53:53;;;;;;;12.25;6.20;;;1.30;99.90;;;;;;5102450;28;20544;-65
2021/03/18 03:56:24;;;;;;;12.05;6.38;;;1.30;99.90;;;;;;5114497;28;20196;-64
2021/03/18 03:58:52;;;;;;;13.15;5.75;;;1.30;99.90;;;;;;5114199;28;20205;-66
2021/03/18 04:01:27;;;;;;;15.50;6.20;;;1.20;99.90;;;;;;5115009;28;20198;-66
2021/03/18 04:04:00;;;;;;;13.88;7.18;;;1.20;99.90;;;;;;5105550;28;20251;-66
2021/03/18 04:06:28;;;;;;;15.02;6.00;;;1.20;99.90;;;;;;5095893;28;20221;-67
2021/03/18 04:08:58;;;;;;;15.82;8.02;;;1.20;99.90;;;;;;5094213;28;20228;-65
2021/03/18 04:11:25;;;;;;;14.00;6.80;;;1.10;99.90;;;;;;5108969;28;20206;-64
2021/03/18 04:13:52;;;;;;;14.52;6.43;;;1.10;99.90;;;;;;5111190;28;20197;-67
2021/03/18 04:16:23;;;;;;;12.15;6.18;;;1.20;99.90;;;;;;5112193;28;20677;-68
2021/03/18 04:18:54;;;;;;;10.80;6.18;;;1.30;99.90;;;;;;5114389;28;20234;-65
2021/03/18 04:21:22;;;;;;;14.38;7.85;;;1.30;99.90;;;;;;5116569;27;20215;-67
2021/03/18 04:23:48;;;;;;;16.17;7.68;;;1.40;99.90;;;;;;5110799;28;20572;-67
2021/03/18 04:26:16;;;;;;;12.13;7.07;;;1.50;99.90;;;;;;5104315;28;20195;-66
2021/03/18 04:28:43;;;;;;;11.13;6.25;;;1.60;99.90;;;;;;5108501;28;20579;-67
2021/03/18 04:31:10;;;;;;;14.25;6.40;;;1.60;99.90;;;;;;5098557;28;20647;-68
2021/03/18 04:33:38;;;;;;;19.35;7.43;;;1.60;99.90;;;;;;5099251;28;20208;-66
2021/03/18 04:36:06;;;;;;;17.67;6.53;;;1.60;99.90;;;;;;5108003;28;20665;-65
2021/03/18 04:38:33;;;;;;;14.10;6.85;;;1.60;99.90;;;;;;5093825;28;20562;-65
2021/03/18 04:41:00;;;;;;;16.75;6.63;;;1.60;99.90;;;;;;5109700;28;20203;-65
2021/03/18 04:43:26;;;;;;;11.05;5.68;;;1.50;99.90;;;;;;5096297;28;20196;-66
2021/03/18 04:45:55;;;;;;;16.38;7.07;;;1.60;99.90;;;;;;5107090;28;20224;-65
2021/03/18 04:48:22;;;;;;;13.25;7.40;;;1.80;99.90;;;;;;5093502;28;20206;-67
2021/03/18 04:50:50;;;;;;;13.80;6.55;;;1.80;99.90;;;;;;5095400;28;20449;-66
2021/03/18 04:53:19;;;;;;;13.10;6.50;;;1.90;99.90;;;;;;5112082;28;20201;-65
2021/03/18 04:55:46;;;;;;;15.20;8.40;;;2.00;99.90;;;;;;5111960;28;20765;-66
2021/03/18 04:58:13;;;;;;;17.10;7.78;;;2.00;99.90;;;;;;5093229;28;20446;-60
2021/03/18 05:00:41;;;;;;;7.40;2.87;;;2.20;99.90;;;;;;5100998;28;20212;-59
2021/03/18 05:03:08;;;;;;;19.93;8.83;;;5.20;99.90;;;;;;5098877;28;21019;-64
2021/03/18 05:05:37;;;;;;;15.77;7.43;;;4.80;99.90;;;;;;5104081;28;20896;-64
2021/03/18 05:08:05;;;;;;;13.30;7.10;;;4.40;99.90;;;;;;5112801;28;20441;-64
2021/03/18 05:10:34;;;;;;;14.83;7.23;;;4.10;99.90;;;;;;5103472;28;20869;-65
2021/03/18 05:13:05;;;;;;;15.20;6.97;;;3.80;99.90;;;;;;5098632;28;20449;-64
2021/03/18 05:15:32;;;;;;;15.67;7.80;;;3.60;99.90;;;;;;5107994;28;20459;-66
2021/03/18 05:18:00;;;;;;;16.07;7.27;;;3.50;99.90;;;;;;5110411;28;20456;-63
2021/03/18 05:20:26;;;;;;;16.93;7.00;;;3.40;99.90;;;;;;5104776;28;20507;-63
2021/03/18 05:22:53;;;;;;;14.20;7.50;;;3.30;99.90;;;;;;5110374;27;20457;-65
2021/03/18 05:25:22;;;;;;;19.47;9.70;;;3.20;99.90;;;;;;5110421;28;20455;-63
2021/03/18 05:27:49;;;;;;;20.80;7.80;;;3.10;99.90;;;;;;5105061;28;20439;-65
2021/03/18 05:30:17;;;;;;;17.33;7.60;;;3.10;99.90;;;;;;5100974;28;20820;-64
2021/03/18 05:32:44;;;;;;;13.03;6.97;;;3.20;99.90;;;;;;5100907;28;20475;-65
2021/03/18 05:35:12;;;;;;;17.25;7.60;;;3.20;99.90;;;;;;5113181;28;21026;-64
2021/03/18 05:37:39;;;;;;;16.67;7.20;;;3.10;99.90;;;;;;5112704;28;20257;-65
2021/03/18 05:40:10;;;;;;;12.77;6.85;;;3.10;99.90;;;;;;5112849;28;20207;-63
2021/03/18 05:42:38;;;;;;;14.63;7.10;;;3.10;99.90;;;;;;5113074;28;20206;-65
2021/03/18 05:45:06;;;;;;;16.23;8.73;;;3.10;99.90;;;;;;5112951;28;20466;-63
2021/03/18 05:47:34;;;;;;;13.57;7.00;;;3.10;99.90;;;;;;5112525;28;20456;-63
2021/03/18 05:50:01;;;;;;;13.17;7.40;;;3.10;99.90;;;;;;5112189;28;20453;-63
2021/03/18 05:52:29;;;;;;;16.50;7.83;;;3.10;99.90;;;;;;5112691;28;20454;-64
2021/03/18 05:54:57;;;;;;;24.83;8.10;;;3.10;99.90;;;;;;5113021;28;20479;-63
2021/03/18 05:57:24;;;;;;;16.13;7.67;;;3.10;99.90;;;;;;5112485;28;20447;-63
2021/03/18 05:59:51;;;;;;;13.38;7.28;;;3.20;99.90;;;;;;5112752;28;20407;-63
2021/03/18 06:02:18;;;;;;;11.70;6.97;;;3.20;99.90;;;;;;5112775;28;20199;-66
2021/03/18 06:04:44;;;;;;;11.93;6.60;;;3.20;99.90;;;;;;5112403;28;20465;-66
2021/03/18 06:07:11;;;;;;;15.83;6.67;;;3.30;99.90;;;;;;5112342;28;20493;-63
2021/03/18 06:09:38;;;;;;;13.60;7.07;;;3.30;99.90;;;;;;5112758;28;20901;-64
2021/03/18 06:12:05;;;;;;;10.70;6.43;;;3.30;99.90;;;;;;5112560;28;20449;-64
2021/03/18 06:14:32;;;;;;;20.30;6.50;;;3.40;99.90;;;;;;5103858;28;20989;-64
2021/03/18 06:16:59;;;;;;;21.80;9.87;;;3.40;99.90;;;;;;5112113;28;20474;-63
2021/03/18 06:19:26;;;;;;;14.60;7.40;;;3.40;99.90;;;;;;5112525;28;20466;-65
2021/03/18 06:21:55;;;;;;;16.33;7.00;;;3.40;99.90;;;;;;5111961;28;20428;-64
2021/03/18 06:24:23;;;;;;;16.90;7.13;;;3.40;99.90;;;;;;5112621;28;20296;-64
2021/03/18 06:26:49;;;;;;;18.73;6.70;;;3.50;99.90;;;;;;5112322;28;20451;-64
2021/03/18 06:29:35;;;;;;;13.70;5.77;;;3.40;99.90;;;;;;5112592;28;20540;-64
2021/03/18 06:32:16;;;;;;;13.83;5.93;;;3.40;99.90;;;;;;5112333;28;20420;-64
2021/03/18 06:34:44;;;;;;;13.80;5.47;;;3.50;99.90;;;;;;5112354;28;20505;-64
2021/03/18 06:37:31;;;;;;;14.53;6.93;;;3.60;99.90;;;;;;5111856;28;20449;-64
2021/03/18 06:40:00;;;;;;;16.60;6.63;;;3.80;99.90;;;;;;5112274;28;20445;-64
2021/03/18 06:42:26;;;;;;;20.83;7.50;;;3.90;99.90;;;;;;5112068;28;20423;-64
2021/03/18 06:45:08;;;;;;;16.90;6.40;;;3.90;99.90;;;;;;5112715;28;20593;-65
2021/03/18 06:47:46;;;;;;;16.90;7.13;;;4.00;99.90;;;;;;5111785;28;20459;-64
2021/03/18 06:50:15;;;;;;;17.67;11.37;;;4.20;99.90;;;;;;5101309;28;20476;-64
2021/03/18 06:52:42;;;;;;;13.83;6.83;;;4.30;99.90;;;;;;5104886;28;20446;-65
2021/03/18 06:55:10;;;;;;;13.93;6.53;;;4.50;99.90;;;;;;5095768;28;20469;-64
2021/03/18 06:57:36;;;;;;;15.67;6.20;;;4.50;99.90;;;;;;5113447;28;20447;-64
2021/03/18 07:00:05;;;;;;;16.80;6.90;;;4.60;99.90;;;;;;5108882;28;20430;-64
2021/03/18 07:02:39;;;;;;;13.97;7.37;;;4.60;99.90;;;;;;5095153;28;20483;-63
2021/03/18 07:05:16;;;;;;;12.73;6.47;;;4.80;99.90;;;;;;5111492;27;20473;-64
2021/03/18 07:07:42;;;;;;;15.20;5.77;;;4.90;99.90;;;;;;5096213;28;20510;-64
2021/03/18 07:10:10;;;;;;;12.67;6.27;;;5.00;99.90;;;;;;5113019;28;20449;-66
2021/03/18 07:12:36;;;;;;;12.80;6.57;;;5.00;99.90;;;;;;5111920;28;20457;-64
2021/03/18 07:15:15;;;;;;;25.87;7.70;;;5.10;99.90;;;;;;5112968;28;20529;-66
2021/03/18 07:17:42;;;;;;;13.43;6.20;;;5.10;99.90;;;;;;5109982;28;20525;-65
2021/03/18 07:20:12;;;;;;;19.20;8.73;;;5.20;99.90;;;;;;5109486;28;20471;-64
2021/03/18 07:22:44;;;;;;;21.17;6.70;;;5.20;99.90;;;;;;5115862;28;21011;-64
2021/03/18 07:25:12;;;;;;;13.10;6.90;;;5.40;99.90;;;;;;5110318;28;20823;-63
2021/03/18 07:27:43;;;;;;;17.87;7.20;;;5.50;99.90;;;;;;5113696;28;20448;-64
2021/03/18 07:30:23;;;;;;;15.77;6.47;;;5.70;99.90;;;;;;5114990;28;20478;-63
2021/03/18 07:32:50;;;;;;;19.30;6.93;;;5.70;99.90;;;;;;5094397;28;20810;-64
2021/03/18 07:35:18;;;;;;;13.17;6.10;;;5.80;99.90;;;;;;5114352;28;20454;-63
2021/03/18 07:37:44;;;;;;;16.23;7.43;;;6.10;99.90;;;;;;5115534;27;20445;-66
2021/03/18 07:40:11;;;;;;;14.20;6.70;;;6.30;99.90;;;;;;5106541;27;20542;-66
2021/03/18 07:42:39;;;;;;;17.73;7.40;;;6.40;99.90;;;;;;5114696;28;20859;-64
2021/03/18 07:45:07;;;;;;;17.73;7.50;;;6.50;99.90;;;;;;5114040;28;20480;-64
2021/03/18 07:47:34;;;;;;;19.63;7.33;;;6.70;99.90;;;;;;5130895;27;20470;-64
2021/03/18 07:50:03;;;;;;;15.43;6.60;;;6.70;99.90;;;;;;5114122;27;20444;-64
2021/03/18 07:52:31;;;;;;;19.57;6.63;;;6.70;99.90;;;;;;5111935;27;20448;-65
2021/03/18 07:54:59;;;;;;;12.67;5.80;;;6.90;99.90;;;;;;5108048;28;20518;-65
2021/03/18 07:57:26;;;;;;;18.03;5.37;;;6.90;99.90;;;;;;5113130;28;20530;-64
2021/03/18 07:59:52;;;;;;;13.47;5.50;;;7.20;99.90;;;;;;5112560;28;20456;-64
2021/03/18 08:02:21;;;;;;;12.83;5.60;;;7.40;99.90;;;;;;5111711;28;20449;-64
2021/03/18 08:04:49;;;;;;;23.97;6.07;;;7.40;99.90;;;;;;5112554;28;20476;-64
2021/03/18 08:07:38;;;;;;;14.67;5.80;;;7.40;99.90;;;;;;5113137;27;20516;-64
2021/03/18 08:10:05;;;;;;;14.93;5.50;;;7.70;99.90;;;;;;5111178;28;20449;-64
2021/03/18 08:12:49;;;;;;;18.43;8.13;;;7.80;99.90;;;;;;5118025;27;20445;-64
2021/03/18 08:15:25;;;;;;;19.20;7.87;;;7.90;99.90;;;;;;5117929;27;20453;-65
2021/03/18 08:17:52;;;;;;;13.83;7.23;;;8.30;99.90;;;;;;5119297;27;20480;-63
2021/03/18 08:21:01;;;;;;;16.07;7.83;;;8.30;99.90;;;;;;5113207;27;20441;-63
2021/03/18 08:23:54;;;;;;;14.87;7.03;;;8.60;99.90;;;;;;5111409;28;20445;-64
2021/03/18 08:26:47;;;;;;;13.67;5.63;;;8.80;99.90;;;;;;5109266;28;20575;-64
2021/03/18 08:29:22;;;;;;;15.77;7.63;;;9.00;99.90;;;;;;5106861;28;20445;-64
2021/03/18 08:31:54;;;;;;;14.00;7.50;;;8.70;99.90;;;;;;5112645;28;20449;-64
2021/03/18 08:34:22;;;;;;;18.40;7.90;;;8.50;99.90;;;;;;5114331;28;20560;-63
2021/03/18 08:36:57;;;;;;;17.30;7.60;;;8.50;99.90;;;;;;5103841;28;20448;-65
2021/03/18 08:39:51;;;;;;;15.93;7.13;;;8.20;99.90;;;;;;5093525;28;20450;-64
2021/03/18 08:42:38;;;;;;;12.57;7.00;;;8.30;99.90;;;;;;5085503;28;20465;-64
2021/03/18 08:45:09;;;;;;;13.83;7.13;;;8.30;99.90;;;;;;5113839;28;20525;-66
2021/03/18 08:47:36;;;;;;;17.30;7.67;;;8.30;99.90;;;;;;5093999;28;20441;-64
2021/03/18 08:50:03;;;;;;;17.57;8.30;;;8.30;99.90;;;;;;5093278;28;20441;-63
2021/03/18 08:52:37;;;;;;;19.67;8.00;;;8.10;99.90;;;;;;5098759;28;20509;-67
2021/03/18 08:55:06;;;;;;;15.80;8.53;;;8.40;99.90;;;;;;5113491;28;20562;-64
2021/03/18 08:57:35;;;;;;;15.77;7.90;;;8.50;99.90;;;;;;5111404;28;20472;-64
2021/03/18 09:00:14;;;;;;;18.77;9.20;;;8.70;99.90;;;;;;5113157;28;20441;-64
2021/03/18 09:02:42;;;;;;;22.13;9.97;;;9.00;99.90;;;;;;5094777;28;20454;-65
2021/03/18 09:05:13;;;;;;;16.97;9.47;;;8.90;99.90;;;;;;5100088;28;21083;-64
2021/03/18 09:07:40;;;;;;;16.50;8.43;;;9.20;99.90;;;;;;5104088;27;20873;-64
2021/03/18 09:10:18;;;;;;;15.50;8.20;;;9.10;99.90;;;;;;5112824;27;20442;-66
2021/03/18 09:12:47;;;;;;;18.23;9.10;;;9.10;99.90;;;;;;5110184;27;20563;-65
2021/03/18 09:15:30;;;;;;;21.10;11.47;;;9.30;99.90;;;;;;5107921;28;20469;-64
2021/03/18 09:17:59;;;;;;;20.27;10.27;;;9.30;99.90;;;;;;5105581;28;20498;-64
2021/03/18 09:20:29;;;;;;;18.70;9.63;;;9.10;99.90;;;;;;5106959;28;20799;-67
2021/03/18 09:23:08;;;;;;;23.20;10.10;;;8.80;99.90;;;;;;5101087;28;20457;-64
2021/03/18 09:25:36;;;;;;;17.70;9.30;;;8.80;99.90;;;;;;5103933;28;20483;-64
2021/03/18 09:28:03;;;;;;;19.43;9.57;;;8.70;99.90;;;;;;5105186;28;20442;-63
2021/03/18 09:30:33;;;;;;;18.90;9.00;;;8.60;99.90;;;;;;5113323;27;20445;-64
2021/03/18 09:33:02;;;;;;;20.97;9.13;;;8.40;99.90;;;;;;5112363;27;20437;-64
2021/03/18 09:35:29;;;;;;;20.93;8.30;;;8.40;99.90;;;;;;5110420;28;20460;-65
2021/03/18 09:37:57;;;;;;;17.70;8.03;;;8.70;99.90;;;;;;5103520;28;20537;-64
2021/03/18 09:40:35;;;;;;;18.10;9.30;;;9.10;99.90;;;;;;5107237;28;20832;-66
2021/03/18 09:43:02;;;;;;;15.40;7.27;;;9.30;99.90;;;;;;5112631;28;20536;-65
2021/03/18 09:45:29;;;;;;;14.40;7.63;;;9.90;99.90;;;;;;5103370;28;20983;-64
2021/03/18 09:47:56;;;;;;;14.40;6.77;;;10.10;99.90;;;;;;5096384;28;20521;-62
2021/03/18 09:50:24;;;;;;;13.97;6.63;;;10.10;99.90;;;;;;5112922;28;20437;-61
2021/03/18 09:52:51;;;;;;;12.03;6.03;;;10.00;99.90;;;;;;5104129;28;20442;-66
2021/03/18 09:55:18;;;;;;;15.80;7.60;;;10.30;99.90;;;;;;5093295;28;20476;-65
2021/03/18 09:57:46;;;;;;;14.67;6.10;;;10.50;99.90;;;;;;5105090;28;20545;-64
2021/03/18 10:00:14;;;;;;;17.23;7.27;;;10.40;99.90;;;;;;5111474;28;20950;-65
2021/03/18 10:02:42;;;;;;;15.00;6.80;;;10.30;99.90;;;;;;5106433;28;20450;-65
2021/03/18 10:05:09;;;;;;;18.17;6.93;;;9.90;99.90;;;;;;5103768;28;20929;-64
2021/03/18 10:07:36;;;;;;;13.23;5.73;;;9.60;99.90;;;;;;5104183;28;20887;-67
2021/03/18 10:10:03;;;;;;;14.80;6.90;;;9.70;99.90;;;;;;5107121;28;20775;-64
2021/03/18 10:12:30;;;;;;;16.07;6.90;;;9.60;99.90;;;;;;5115088;27;20448;-65
2021/03/18 10:15:01;;;;;;;15.13;7.20;;;9.90;99.90;;;;;;5102803;28;20507;-64
2021/03/18 10:17:32;;;;;;;19.23;8.20;;;9.60;99.90;;;;;;5109637;28;20520;-65
2021/03/18 10:20:00;;;;;;;17.73;7.27;;;9.70;99.90;;;;;;5110877;28;20456;-64
2021/03/18 10:22:31;;;;;;;17.13;8.63;;;9.50;99.90;;;;;;5110513;28;20643;-66
2021/03/18 10:25:04;;;;;;;23.20;9.40;;;9.50;99.90;;;;;;5095955;28;20480;-66
2021/03/18 10:27:34;;;;;;;18.13;8.07;;;9.50;99.90;;;;;;5104605;28;20564;-65
2021/03/18 10:30:11;;;;;;;16.50;7.13;;;9.80;99.90;;;;;;5110021;28;20533;-64
2021/03/18 10:32:38;;;;;;;19.00;8.13;;;9.80;99.90;;;;;;5108158;28;20980;-64
2021/03/18 10:35:06;;;;;;;18.87;8.30;;;9.60;99.90;;;;;;5115977;27;20441;-64
2021/03/18 10:37:37;;;;;;;14.63;7.53;;;9.70;99.90;;;;;;5110592;27;20488;-65
2021/03/18 10:40:10;;;;;;;15.70;7.60;;;9.90;99.90;;;;;;5114261;28;20983;-64
2021/03/18 10:42:36;;;;;;;15.40;6.90;;;10.80;99.90;;;;;;5115384;28;20528;-66
2021/03/18 10:45:17;;;;;;;12.87;6.80;;;11.80;99.90;;;;;;5115407;28;21004;-64
2021/03/18 10:47:44;;;;;;;13.00;6.30;;;11.40;99.90;;;;;;5112491;28;20440;-66
2021/03/18 10:50:12;;;;;;;11.83;5.57;;;10.70;99.90;;;;;;5116398;27;20973;-64
2021/03/18 10:52:39;;;;;;;17.67;5.37;;;11.10;99.90;;;;;;5115162;28;20433;-65
2021/03/18 10:55:07;;;;;;;10.53;5.60;;;11.10;99.90;;;;;;5115786;28;20618;-65
2021/03/18 10:57:35;;;;;;;10.30;5.50;;;11.50;99.90;;;;;;5112373;28;20459;-65
2021/03/18 11:00:06;;;;;;;12.57;4.73;;;11.30;99.90;;;;;;5103525;27;20450;-65
2021/03/18 11:02:33;;;;;;;13.00;5.50;;;10.80;99.90;;;;;;5112300;27;20445;-65
2021/03/18 11:05:01;;;;;;;11.70;5.00;;;10.60;99.90;;;;;;5121797;27;20508;-64
2021/03/18 11:07:28;;;;;;;15.50;5.47;;;10.60;99.90;;;;;;5114290;27;20528;-66
2021/03/18 11:10:10;;;;;;;12.53;5.33;;;10.60;99.90;;;;;;5112372;28;20445;-65
2021/03/18 11:12:37;;;;;;;12.63;4.93;;;10.30;99.90;;;;;;5115552;28;20449;-64
2021/03/18 11:15:05;;;;;;;12.67;5.83;;;10.20;99.90;;;;;;5113530;28;20869;-61
2021/03/18 11:17:31;;;;;;;14.60;6.27;;;10.20;99.90;;;;;;5102470;28;20469;-63
2021/03/18 11:20:10;;;;;;;14.13;5.53;;;10.10;99.90;;;;;;5111062;28;20514;-65
2021/03/18 11:22:36;;;;;;;12.43;4.70;;;10.00;99.90;;;;;;5107401;28;20442;-63
2021/03/18 11:25:03;;;;;;;14.67;5.40;;;10.00;99.90;;;;;;5108657;28;20856;-65
2021/03/18 11:27:31;;;;;;;16.80;6.20;;;10.00;99.90;;;;;;5109428;28;20453;-63
2021/03/18 11:29:58;;;;;;;13.70;6.53;;;10.20;99.90;;;;;;5103494;28;20453;-62
2021/03/18 11:32:25;;;;;;;10.93;5.27;;;10.30;99.90;;;;;;5122732;27;20485;-62
2021/03/18 11:34:55;;;;;;;10.47;4.50;;;10.10;99.90;;;;;;5117237;27;20500;-64
2021/03/18 11:37:22;;;;;;;11.23;5.50;;;9.70;99.90;;;;;;5114701;28;20484;-62
2021/03/18 11:39:52;;;;;;;14.23;5.83;;;9.70;99.90;;;;;;5114213;28;20532;-64
2021/03/18 11:42:18;;;;;;;15.37;5.30;;;9.40;99.90;;;;;;5114029;28;20524;-64
2021/03/18 11:44:45;;;;;;;13.47;4.93;;;9.20;99.90;;;;;;5114527;28;20445;-64
2021/03/18 11:47:14;;;;;;;14.83;4.50;;;9.10;99.90;;;;;;5110133;28;20481;-62
2021/03/18 11:49:42;;;;;;;12.50;4.80;;;9.10;99.90;;;;;;5110961;28;20513;-62
2021/03/18 11:52:11;;;;;;;9.77;4.27;;;8.90;99.90;;;;;;5112466;28;20528;-63
2021/03/18 11:54:39;;;;;;;11.03;4.43;;;8.90;99.90;;;;;;5114416;28;20495;-65
2021/03/18 11:57:06;;;;;;;9.10;3.20;;;8.90;99.90;;;;;;5112935;28;20473;-66
2021/03/18 11:59:33;;;;;;;8.50;3.00;;;9.00;99.90;;;;;;5092304;28;20961;-65
2021/03/18 12:01:59;;;;;;;13.17;3.40;;;9.00;99.90;;;;;;5110949;28;20454;-65
2021/03/18 12:04:25;;;;;;;7.17;2.50;;;9.00;99.90;;;;;;5109031;28;20458;-63
2021/03/18 12:06:52;;;;;;;8.90;2.87;;;9.10;99.90;;;;;;5112297;28;20551;-63
2021/03/18 12:09:18;;;;;;;10.63;2.83;;;9.50;99.90;;;;;;5113365;28;20587;-62
2021/03/18 12:11:45;;;;;;;10.23;2.87;;;9.70;99.90;;;;;;5117931;27;20449;-63
2021/03/18 12:14:12;;;;;;;7.20;1.87;;;9.70;99.90;;;;;;5114281;28;20468;-63
2021/03/18 12:16:38;;;;;;;11.57;3.53;;;9.70;99.90;;;;;;5113530;28;20955;-65
2021/03/18 12:19:05;;;;;;;10.03;3.30;;;9.70;99.90;;;;;;5112582;28;20493;-63
2021/03/18 12:21:31;;;;;;;8.97;3.00;;;9.70;99.90;;;;;;5109465;28;20448;-64
2021/03/18 12:23:57;;;;;;;7.73;2.67;;;9.60;99.90;;;;;;5109355;28;20453;-66
2021/03/18 12:26:24;;;;;;;7.73;2.37;;;9.90;99.90;;;;;;5112310;28;20491;-63
2021/03/18 12:28:51;;;;;;;11.37;3.00;;;10.10;99.90;;;;;;5114142;28;20547;-62
2021/03/18 12:31:18;;;;;;;33.67;17.27;;;10.00;99.90;;;;;;5114459;28;20488;-63
2021/03/18 12:33:44;;;;;;;8.40;3.57;;;9.90;99.90;;;;;;5110037;28;20537;-62
2021/03/18 12:36:11;;;;;;;9.47;2.83;;;9.20;99.90;;;;;;5098933;28;21085;-62
2021/03/18 12:38:37;;;;;;;10.27;3.90;;;9.00;99.90;;;;;;5113670;28;20453;-65
2021/03/18 12:41:04;;;;;;;9.80;3.80;;;8.90;99.90;;;;;;5113742;28;20445;-62
2021/03/18 12:43:30;;;;;;;11.10;3.80;;;9.00;99.90;;;;;;5114035;28;20529;-62
2021/03/18 12:45:57;;;;;;;11.10;3.20;;;8.80;99.90;;;;;;5111984;28;20513;-63
2021/03/18 12:48:23;;;;;;;8.63;2.73;;;9.00;99.90;;;;;;5103964;28;20470;-62
2021/03/18 12:50:50;;;;;;;7.47;2.33;;;9.40;99.90;;;;;;5105571;28;20532;-63
2021/03/18 12:53:16;;;;;;;11.60;2.83;;;9.50;99.90;;;;;;5112916;28;20498;-62
2021/03/18 12:55:48;;;;;;;10.13;3.00;;;9.90;99.90;;;;;;5110513;28;20568;-63
2021/03/18 12:58:14;;;;;;;12.20;5.93;;;10.20;99.90;;;;;;5112802;28;20456;-63